createdAt,value
2017-07-06T00:00:45.486Z,0
2017-07-06T00:01:45.487Z,0
2017-07-06T00:02:45.496Z,0
2017-07-06T00:03:45.495Z,0
2017-07-06T00:04:45.490Z,0
2017-07-06T00:05:45.477Z,0
2017-07-06T00:06:45.485Z,0
2017-07-06T00:07:45.490Z,0
2017-07-06T00:08:45.405Z,0
2017-07-06T00:09:45.489Z,0
2017-07-06T00:10:45.465Z,0
2017-07-06T00:11:45.463Z,0
2017-07-06T00:12:45.461Z,0
2017-07-06T00:13:45.466Z,0
2017-07-06T00:14:45.492Z,0
2017-07-06T00:15:45.470Z,0
2017-07-06T00:16:45.468Z,0
2017-07-06T00:17:45.470Z,0
2017-07-06T00:18:45.465Z,0
2017-07-06T00:19:45.463Z,0
2017-07-06T00:20:45.421Z,0
2017-07-06T00:21:45.432Z,0
2017-07-06T00:22:45.485Z,0
2017-07-06T00:23:45.499Z,0
2017-07-06T00:24:45.500Z,0
2017-07-06T00:25:45.509Z,0
2017-07-06T00:26:45.458Z,0
2017-07-06T00:27:45.438Z,0
2017-07-06T00:28:45.502Z,0
2017-07-06T00:29:45.503Z,0
2017-07-06T00:30:45.481Z,0
2017-07-06T00:31:45.447Z,0
2017-07-06T00:32:45.447Z,0
2017-07-06T00:33:45.406Z,0
2017-07-06T00:34:45.407Z,0
2017-07-06T00:35:45.410Z,0
2017-07-06T00:36:45.492Z,0
2017-07-06T00:37:45.456Z,0
2017-07-06T00:38:45.452Z,0
2017-07-06T00:39:45.450Z,0
2017-07-06T00:40:45.510Z,0
2017-07-06T00:41:45.513Z,0
2017-07-06T00:42:45.512Z,0
2017-07-06T00:43:45.496Z,0
2017-07-06T00:44:45.419Z,0
2017-07-06T00:45:45.503Z,0
2017-07-06T00:46:45.521Z,0
2017-07-06T00:47:45.512Z,0
2017-07-06T00:48:45.434Z,0
2017-07-06T00:49:45.499Z,0
2017-07-06T00:50:45.524Z,0
2017-07-06T00:51:45.540Z,0
2017-07-06T00:52:45.424Z,0
2017-07-06T00:53:45.451Z,0
2017-07-06T00:54:45.523Z,0
2017-07-06T00:55:45.522Z,0
2017-07-06T00:56:45.486Z,0
2017-07-06T00:57:45.513Z,0
2017-07-06T00:58:45.516Z,0
2017-07-06T00:59:45.506Z,0
2017-07-06T01:00:45.621Z,0
2017-07-06T01:01:45.524Z,0
2017-07-06T01:02:45.444Z,0
2017-07-06T01:03:45.510Z,0
2017-07-06T01:04:45.523Z,0
2017-07-06T01:05:45.440Z,0
2017-07-06T01:06:45.528Z,0
2017-07-06T01:07:45.519Z,0
2017-07-06T01:08:45.534Z,0
2017-07-06T01:09:45.520Z,0
2017-07-06T01:10:45.597Z,0
2017-07-06T01:11:45.550Z,0
2017-07-06T01:12:45.514Z,0
2017-07-06T01:13:45.524Z,0
2017-07-06T01:14:45.513Z,0
2017-07-06T01:15:45.517Z,0
2017-07-06T01:16:45.516Z,0
2017-07-06T01:17:45.518Z,0
2017-07-06T01:18:45.515Z,0
2017-07-06T01:19:45.527Z,0
2017-07-06T01:20:45.538Z,0
2017-07-06T01:21:45.498Z,0
2017-07-06T01:22:45.522Z,0
2017-07-06T01:23:45.451Z,0
2017-07-06T01:24:45.540Z,0
2017-07-06T01:25:45.447Z,0
2017-07-06T01:26:45.533Z,0
2017-07-06T01:27:45.532Z,0
2017-07-06T01:28:45.453Z,0
2017-07-06T01:29:45.534Z,0
2017-07-06T01:30:45.537Z,0
2017-07-06T01:31:45.459Z,0
2017-07-06T01:32:45.526Z,0
2017-07-06T01:33:45.504Z,0
2017-07-06T01:34:45.462Z,0
2017-07-06T01:35:45.460Z,0
2017-07-06T01:36:45.538Z,0
2017-07-06T01:37:45.544Z,0
2017-07-06T01:38:45.479Z,0
2017-07-06T01:39:45.515Z,0
2017-07-06T01:40:45.514Z,0
2017-07-06T01:41:45.516Z,0
2017-07-06T01:42:45.516Z,0
2017-07-06T01:43:45.515Z,0
2017-07-06T01:44:45.516Z,0
2017-07-06T01:45:45.515Z,0
2017-07-06T01:46:45.519Z,0
2017-07-06T01:47:45.514Z,0
2017-07-06T01:48:45.521Z,0
2017-07-06T01:49:45.521Z,0
2017-07-06T01:50:45.467Z,0
2017-07-06T01:51:45.558Z,0
2017-07-06T01:52:45.513Z,0
2017-07-06T01:53:45.547Z,0
2017-07-06T01:54:45.515Z,0
2017-07-06T01:55:45.551Z,0
2017-07-06T01:56:45.552Z,0
2017-07-06T01:57:45.547Z,0
2017-07-06T01:58:45.563Z,0
2017-07-06T01:59:45.559Z,0
2017-07-06T02:00:45.539Z,0
2017-07-06T02:01:45.551Z,0
2017-07-06T02:02:45.553Z,0
2017-07-06T02:03:45.540Z,0
2017-07-06T02:04:45.554Z,0
2017-07-06T02:05:45.541Z,0
2017-07-06T02:06:45.542Z,0
2017-07-06T02:07:45.548Z,0
2017-07-06T02:08:45.543Z,0
2017-07-06T02:09:45.461Z,0
2017-07-06T02:10:45.481Z,0
2017-07-06T02:11:45.569Z,0
2017-07-06T02:12:45.551Z,0
2017-07-06T02:13:45.555Z,0
2017-07-06T02:14:45.570Z,0
2017-07-06T02:15:45.618Z,0
2017-07-06T02:16:45.551Z,0
2017-07-06T02:17:45.486Z,0
2017-07-06T02:18:45.527Z,0
2017-07-06T02:19:45.485Z,0
2017-07-06T02:20:45.488Z,0
2017-07-06T02:21:45.561Z,0
2017-07-06T02:22:45.448Z,0
2017-07-06T02:23:45.506Z,0
2017-07-06T02:24:45.505Z,0
2017-07-06T02:25:45.490Z,0
2017-07-06T02:26:45.456Z,0
2017-07-06T02:27:45.431Z,0
2017-07-06T02:28:45.529Z,0
2017-07-06T02:29:45.550Z,0
2017-07-06T02:30:45.582Z,0
2017-07-06T02:31:45.555Z,0
2017-07-06T02:32:45.569Z,0
2017-07-06T02:33:45.573Z,0
2017-07-06T02:34:45.485Z,0
2017-07-06T02:35:45.491Z,0
2017-07-06T02:36:45.560Z,0
2017-07-06T02:37:45.575Z,0
2017-07-06T02:38:45.571Z,0
2017-07-06T02:39:45.551Z,0
2017-07-06T02:40:45.511Z,0
2017-07-06T02:41:45.586Z,0
2017-07-06T02:42:45.571Z,0
2017-07-06T02:43:45.582Z,0
2017-07-06T02:44:45.489Z,0
2017-07-06T02:45:45.569Z,0
2017-07-06T02:46:45.684Z,0
2017-07-06T02:47:45.549Z,0
2017-07-06T02:48:45.565Z,0
2017-07-06T02:49:45.584Z,0
2017-07-06T02:50:45.566Z,0
2017-07-06T02:51:45.565Z,0
2017-07-06T02:52:45.649Z,5
2017-07-06T02:53:45.567Z,5
2017-07-06T02:54:45.569Z,5
2017-07-06T02:55:45.537Z,5
2017-07-06T02:56:45.593Z,5
2017-07-06T02:57:45.573Z,5
2017-07-06T02:58:45.572Z,5
2017-07-06T02:59:45.576Z,11
2017-07-06T03:00:45.546Z,11
2017-07-06T03:01:45.597Z,11
2017-07-06T03:02:45.600Z,11
2017-07-06T03:03:45.533Z,16
2017-07-06T03:04:45.526Z,16
2017-07-06T03:05:45.529Z,16
2017-07-06T03:06:45.536Z,16
2017-07-06T03:07:45.530Z,22
2017-07-06T03:08:45.547Z,22
2017-07-06T03:09:45.538Z,22
2017-07-06T03:10:45.601Z,28
2017-07-06T03:11:45.512Z,28
2017-07-06T03:12:45.511Z,28
2017-07-06T03:13:45.558Z,33
2017-07-06T03:14:45.518Z,33
2017-07-06T03:15:45.512Z,39
2017-07-06T03:16:45.515Z,39
2017-07-06T03:17:45.702Z,45
2017-07-06T03:18:45.562Z,45
2017-07-06T03:19:45.570Z,50
2017-07-06T03:20:45.602Z,50
2017-07-06T03:21:45.601Z,56
2017-07-06T03:22:45.604Z,56
2017-07-06T03:23:45.565Z,61
2017-07-06T03:24:45.633Z,67
2017-07-06T03:25:45.561Z,67
2017-07-06T03:26:45.606Z,73
2017-07-06T03:27:45.587Z,73
2017-07-06T03:28:45.519Z,78
2017-07-06T03:29:45.604Z,84
2017-07-06T03:30:45.656Z,90
2017-07-06T03:31:45.602Z,90
2017-07-06T03:32:45.585Z,95
2017-07-06T03:33:45.603Z,101
2017-07-06T03:34:45.592Z,106
2017-07-06T03:35:45.526Z,112
2017-07-06T03:36:45.586Z,118
2017-07-06T03:37:45.599Z,118
2017-07-06T03:38:45.607Z,123
2017-07-06T03:39:45.533Z,123
2017-07-06T03:40:45.603Z,129
2017-07-06T03:41:45.615Z,129
2017-07-06T03:42:45.816Z,135
2017-07-06T03:43:45.591Z,135
2017-07-06T03:44:45.527Z,140
2017-07-06T03:45:45.526Z,146
2017-07-06T03:46:45.613Z,151
2017-07-06T03:47:45.576Z,151
2017-07-06T03:48:45.614Z,157
2017-07-06T03:49:45.634Z,163
2017-07-06T03:50:45.603Z,168
2017-07-06T03:51:45.540Z,180
2017-07-06T03:52:45.615Z,185
2017-07-06T03:53:45.617Z,185
2017-07-06T03:54:45.610Z,191
2017-07-06T03:55:45.618Z,191
2017-07-06T03:56:45.547Z,196
2017-07-06T03:57:45.608Z,196
2017-07-06T03:58:45.612Z,208
2017-07-06T03:59:45.618Z,213
2017-07-06T04:00:45.621Z,230
2017-07-06T04:01:45.593Z,230
2017-07-06T04:02:45.588Z,241
2017-07-06T04:03:45.589Z,247
2017-07-06T04:04:45.594Z,247
2017-07-06T04:05:45.591Z,253
2017-07-06T04:06:45.592Z,253
2017-07-06T04:07:45.693Z,236
2017-07-06T04:08:45.597Z,236
2017-07-06T04:09:45.594Z,241
2017-07-06T04:10:45.601Z,258
2017-07-06T04:11:45.623Z,275
2017-07-06T04:12:45.624Z,292
2017-07-06T04:13:45.540Z,298
2017-07-06T04:14:45.541Z,309
2017-07-06T04:15:45.627Z,320
2017-07-06T04:16:45.624Z,326
2017-07-06T04:17:45.609Z,337
2017-07-06T04:18:45.643Z,343
2017-07-06T04:19:45.610Z,348
2017-07-06T04:20:45.601Z,360
2017-07-06T04:21:45.641Z,365
2017-07-06T04:22:45.638Z,371
2017-07-06T04:23:45.594Z,376
2017-07-06T04:24:45.635Z,388
2017-07-06T04:25:45.555Z,399
2017-07-06T04:26:45.634Z,405
2017-07-06T04:27:45.638Z,416
2017-07-06T04:28:45.630Z,421
2017-07-06T04:29:45.558Z,438
2017-07-06T04:30:45.636Z,450
2017-07-06T04:31:45.646Z,455
2017-07-06T04:32:45.557Z,466
2017-07-06T04:33:45.554Z,472
2017-07-06T04:34:45.630Z,478
2017-07-06T04:35:45.640Z,483
2017-07-06T04:36:45.552Z,489
2017-07-06T04:37:45.547Z,495
2017-07-06T04:38:45.562Z,500
2017-07-06T04:39:45.623Z,500
2017-07-06T04:40:45.561Z,495
2017-07-06T04:41:45.645Z,478
2017-07-06T04:42:45.643Z,461
2017-07-06T04:43:45.556Z,478
2017-07-06T04:44:45.629Z,500
2017-07-06T04:45:45.605Z,517
2017-07-06T04:46:45.645Z,528
2017-07-06T04:47:45.648Z,540
2017-07-06T04:48:45.646Z,545
2017-07-06T04:49:45.566Z,551
2017-07-06T04:50:45.641Z,556
2017-07-06T04:51:45.620Z,568
2017-07-06T04:52:45.620Z,585
2017-07-06T04:53:45.616Z,596
2017-07-06T04:54:45.618Z,607
2017-07-06T04:55:45.620Z,624
2017-07-06T04:56:45.618Z,635
2017-07-06T04:57:45.618Z,641
2017-07-06T04:58:45.619Z,652
2017-07-06T04:59:45.620Z,652
2017-07-06T05:00:45.622Z,652
2017-07-06T05:01:45.635Z,652
2017-07-06T05:02:45.719Z,658
2017-07-06T05:03:45.635Z,658
2017-07-06T05:04:45.637Z,663
2017-07-06T05:05:45.640Z,663
2017-07-06T05:06:45.635Z,663
2017-07-06T05:07:45.636Z,652
2017-07-06T05:08:45.720Z,658
2017-07-06T05:09:45.647Z,658
2017-07-06T05:10:45.719Z,658
2017-07-06T05:11:45.598Z,669
2017-07-06T05:12:45.666Z,691
2017-07-06T05:13:45.580Z,708
2017-07-06T05:14:45.571Z,720
2017-07-06T05:15:45.571Z,736
2017-07-06T05:16:45.604Z,742
2017-07-06T05:17:45.602Z,753
2017-07-06T05:18:45.601Z,776
2017-07-06T05:19:45.623Z,787
2017-07-06T05:20:45.613Z,804
2017-07-06T05:21:45.586Z,815
2017-07-06T05:22:45.665Z,821
2017-07-06T05:23:45.674Z,821
2017-07-06T05:24:45.628Z,821
2017-07-06T05:25:45.580Z,826
2017-07-06T05:26:45.591Z,832
2017-07-06T05:27:45.663Z,843
2017-07-06T05:28:45.602Z,843
2017-07-06T05:29:45.589Z,849
2017-07-06T05:30:45.593Z,849
2017-07-06T05:31:45.643Z,821
2017-07-06T05:32:45.642Z,832
2017-07-06T05:33:45.644Z,871
2017-07-06T05:34:45.641Z,877
2017-07-06T05:35:45.645Z,883
2017-07-06T05:36:45.652Z,888
2017-07-06T05:37:45.646Z,900
2017-07-06T05:38:45.646Z,911
2017-07-06T05:39:45.646Z,916
2017-07-06T05:40:45.648Z,928
2017-07-06T05:41:45.651Z,939
2017-07-06T05:42:45.646Z,945
2017-07-06T05:43:45.651Z,956
2017-07-06T05:44:45.650Z,961
2017-07-06T05:45:45.649Z,973
2017-07-06T05:46:45.647Z,984
2017-07-06T05:47:45.649Z,1125
2017-07-06T05:48:45.649Z,1445
2017-07-06T05:49:45.651Z,1546
2017-07-06T05:50:45.650Z,1530
2017-07-06T05:51:45.652Z,1490
2017-07-06T05:52:45.655Z,1496
2017-07-06T05:53:45.656Z,1507
2017-07-06T05:54:45.656Z,1558
2017-07-06T05:55:45.656Z,1591
2017-07-06T05:56:45.660Z,1603
2017-07-06T05:57:45.654Z,1625
2017-07-06T05:58:45.661Z,1620
2017-07-06T05:59:45.656Z,1620
2017-07-06T06:00:45.662Z,1608
2017-07-06T06:01:45.628Z,1575
2017-07-06T06:02:45.612Z,1552
2017-07-06T06:03:45.688Z,1597
2017-07-06T06:04:45.696Z,1569
2017-07-06T06:05:45.690Z,1535
2017-07-06T06:06:45.693Z,1575
2017-07-06T06:07:45.699Z,1614
2017-07-06T06:08:45.702Z,1653
2017-07-06T06:09:45.660Z,1698
2017-07-06T06:10:45.690Z,1710
2017-07-06T06:11:45.648Z,1743
2017-07-06T06:12:45.704Z,1732
2017-07-06T06:13:45.711Z,1687
2017-07-06T06:14:45.701Z,1653
2017-07-06T06:15:45.616Z,1636
2017-07-06T06:16:45.701Z,1608
2017-07-06T06:17:45.619Z,1693
2017-07-06T06:18:45.648Z,1698
2017-07-06T06:19:45.609Z,1681
2017-07-06T06:20:45.839Z,1648
2017-07-06T06:21:45.695Z,1681
2017-07-06T06:22:45.617Z,1726
2017-07-06T06:23:45.699Z,1665
2017-07-06T06:24:45.623Z,1676
2017-07-06T06:25:45.698Z,1783
2017-07-06T06:26:45.624Z,1906
2017-07-06T06:27:45.635Z,1940
2017-07-06T06:28:45.698Z,1935
2017-07-06T06:29:45.619Z,2002
2017-07-06T06:30:45.703Z,2092
2017-07-06T06:31:45.688Z,2131
2017-07-06T06:32:45.689Z,2148
2017-07-06T06:33:45.688Z,2047
2017-07-06T06:34:45.689Z,2058
2017-07-06T06:35:45.690Z,2008
2017-07-06T06:36:45.689Z,1923
2017-07-06T06:37:45.689Z,1845
2017-07-06T06:38:45.689Z,1800
2017-07-06T06:39:45.690Z,1783
2017-07-06T06:40:45.693Z,1805
2017-07-06T06:41:45.693Z,1890
2017-07-06T06:42:45.691Z,1873
2017-07-06T06:43:45.697Z,1850
2017-07-06T06:44:45.690Z,1890
2017-07-06T06:45:45.708Z,1940
2017-07-06T06:46:45.699Z,1980
2017-07-06T06:47:45.692Z,1996
2017-07-06T06:48:45.695Z,1991
2017-07-06T06:49:45.711Z,1980
2017-07-06T06:50:45.698Z,1929
2017-07-06T06:51:45.697Z,1940
2017-07-06T06:52:45.674Z,1873
2017-07-06T06:53:45.629Z,1912
2017-07-06T06:54:45.721Z,2041
2017-07-06T06:55:45.634Z,2081
2017-07-06T06:56:45.720Z,2233
2017-07-06T06:57:45.720Z,2306
2017-07-06T06:58:45.715Z,2356
2017-07-06T06:59:45.720Z,2351
2017-07-06T07:00:45.698Z,2250
2017-07-06T07:01:45.721Z,2278
2017-07-06T07:02:45.775Z,2250
2017-07-06T07:03:45.678Z,2300
2017-07-06T07:04:45.722Z,2385
2017-07-06T07:05:45.720Z,2424
2017-07-06T07:06:45.643Z,2491
2017-07-06T07:07:45.726Z,2553
2017-07-06T07:08:45.646Z,2593
2017-07-06T07:09:45.635Z,2598
2017-07-06T07:10:45.704Z,2598
2017-07-06T07:11:45.686Z,2655
2017-07-06T07:12:45.711Z,2705
2017-07-06T07:13:45.708Z,2761
2017-07-06T07:14:45.712Z,2795
2017-07-06T07:15:45.714Z,2818
2017-07-06T07:16:45.709Z,2908
2017-07-06T07:17:45.712Z,2925
2017-07-06T07:18:45.712Z,2812
2017-07-06T07:19:45.687Z,2823
2017-07-06T07:20:45.723Z,2795
2017-07-06T07:21:45.713Z,2885
2017-07-06T07:22:45.714Z,2823
2017-07-06T07:23:45.715Z,2784
2017-07-06T07:24:45.717Z,2851
2017-07-06T07:25:45.799Z,2902
2017-07-06T07:26:45.718Z,2919
2017-07-06T07:27:45.717Z,2919
2017-07-06T07:28:45.721Z,2941
2017-07-06T07:29:45.717Z,2936
2017-07-06T07:30:45.719Z,2981
2017-07-06T07:31:45.716Z,2998
2017-07-06T07:32:45.715Z,2975
2017-07-06T07:33:45.659Z,2986
2017-07-06T07:34:45.764Z,3026
2017-07-06T07:35:45.736Z,3009
2017-07-06T07:36:45.740Z,2885
2017-07-06T07:37:46.754Z,2986
2017-07-06T07:38:45.748Z,3026
2017-07-06T07:39:45.737Z,2930
2017-07-06T07:40:45.735Z,2885
2017-07-06T07:41:45.663Z,2891
2017-07-06T07:42:45.737Z,2998
2017-07-06T07:43:45.609Z,2941
2017-07-06T07:44:45.668Z,3003
2017-07-06T07:45:45.607Z,2666
2017-07-06T07:46:45.737Z,2874
2017-07-06T07:47:45.626Z,2941
2017-07-06T07:48:45.643Z,3307
2017-07-06T07:49:45.634Z,3296
2017-07-06T07:50:45.629Z,3217
2017-07-06T07:51:45.726Z,3273
2017-07-06T07:52:45.730Z,3425
2017-07-06T07:53:45.730Z,3358
2017-07-06T07:54:45.732Z,3363
2017-07-06T07:55:45.738Z,3403
2017-07-06T07:56:45.734Z,3341
2017-07-06T07:57:45.740Z,3369
2017-07-06T07:58:45.741Z,3352
2017-07-06T07:59:45.736Z,3425
2017-07-06T08:00:45.732Z,3448
2017-07-06T08:01:45.738Z,3330
2017-07-06T08:02:45.756Z,3633
2017-07-06T08:03:45.716Z,3510
2017-07-06T08:04:45.756Z,3504
2017-07-06T08:05:45.756Z,3493
2017-07-06T08:06:45.756Z,3425
2017-07-06T08:07:45.753Z,3431
2017-07-06T08:08:45.763Z,3369
2017-07-06T08:09:45.674Z,3313
2017-07-06T08:10:45.760Z,3301
2017-07-06T08:11:45.763Z,3352
2017-07-06T08:12:45.754Z,3296
2017-07-06T08:13:45.759Z,3493
2017-07-06T08:14:45.682Z,3493
2017-07-06T08:15:45.761Z,3526
2017-07-06T08:16:45.674Z,3504
2017-07-06T08:17:45.755Z,3616
2017-07-06T08:18:45.676Z,3841
2017-07-06T08:19:45.688Z,3847
2017-07-06T08:20:45.681Z,3858
2017-07-06T08:21:45.763Z,3774
2017-07-06T08:22:45.734Z,3785
2017-07-06T08:23:45.835Z,3712
2017-07-06T08:24:45.736Z,3796
2017-07-06T08:25:45.737Z,3796
2017-07-06T08:26:45.741Z,3858
2017-07-06T08:27:45.741Z,3886
2017-07-06T08:28:45.737Z,3892
2017-07-06T08:29:45.741Z,3926
2017-07-06T08:30:45.739Z,4005
2017-07-06T08:31:45.741Z,3999
2017-07-06T08:32:45.682Z,3960
2017-07-06T08:33:45.681Z,3898
2017-07-06T08:34:45.735Z,3954
2017-07-06T08:35:45.656Z,4005
2017-07-06T08:36:45.729Z,4005
2017-07-06T08:37:45.666Z,3999
2017-07-06T08:38:45.686Z,4021
2017-07-06T08:39:45.678Z,4005
2017-07-06T08:40:45.731Z,3999
2017-07-06T08:41:45.667Z,3976
2017-07-06T08:42:45.782Z,4033
2017-07-06T08:43:45.694Z,4005
2017-07-06T08:44:45.696Z,4055
2017-07-06T08:45:45.741Z,4010
2017-07-06T08:46:45.699Z,3993
2017-07-06T08:47:45.790Z,4005
2017-07-06T08:48:45.781Z,3999
2017-07-06T08:49:45.699Z,4021
2017-07-06T08:50:45.777Z,4050
2017-07-06T08:51:45.701Z,4016
2017-07-06T08:52:45.742Z,4083
2017-07-06T08:53:45.782Z,4072
2017-07-06T08:54:45.778Z,4095
2017-07-06T08:55:45.694Z,4021
2017-07-06T08:56:45.701Z,4033
2017-07-06T08:57:45.747Z,4156
2017-07-06T08:58:45.784Z,4258
2017-07-06T08:59:45.781Z,4145
2017-07-06T09:00:45.701Z,4061
2017-07-06T09:01:45.784Z,3920
2017-07-06T09:02:45.771Z,4162
2017-07-06T09:03:45.772Z,4072
2017-07-06T09:04:45.776Z,4134
2017-07-06T09:05:45.777Z,4246
2017-07-06T09:06:45.774Z,4269
2017-07-06T09:07:45.686Z,4325
2017-07-06T09:08:45.772Z,4421
2017-07-06T09:09:45.772Z,4488
2017-07-06T09:10:45.775Z,4550
2017-07-06T09:11:45.799Z,4556
2017-07-06T09:12:45.776Z,4561
2017-07-06T09:13:45.774Z,4567
2017-07-06T09:14:45.774Z,4612
2017-07-06T09:15:45.780Z,4606
2017-07-06T09:16:45.777Z,4629
2017-07-06T09:17:45.778Z,4702
2017-07-06T09:18:45.696Z,4826
2017-07-06T09:19:45.776Z,4871
2017-07-06T09:20:45.795Z,4786
2017-07-06T09:21:45.778Z,4770
2017-07-06T09:22:45.781Z,4792
2017-07-06T09:23:45.778Z,4831
2017-07-06T09:24:45.791Z,4758
2017-07-06T09:25:45.786Z,4623
2017-07-06T09:26:45.784Z,4567
2017-07-06T09:27:45.788Z,4584
2017-07-06T09:28:45.891Z,4533
2017-07-06T09:29:45.787Z,4505
2017-07-06T09:30:45.895Z,4471
2017-07-06T09:31:45.787Z,4426
2017-07-06T09:32:45.786Z,4432
2017-07-06T09:33:45.791Z,4095
2017-07-06T09:34:45.788Z,4308
2017-07-06T09:35:45.790Z,4252
2017-07-06T09:36:45.789Z,4280
2017-07-06T09:37:45.790Z,4398
2017-07-06T09:38:45.788Z,4477
2017-07-06T09:39:45.791Z,4556
2017-07-06T09:40:45.791Z,4668
2017-07-06T09:41:45.794Z,4831
2017-07-06T09:42:45.794Z,4865
2017-07-06T09:43:45.792Z,4854
2017-07-06T09:44:45.789Z,4826
2017-07-06T09:45:45.789Z,4770
2017-07-06T09:46:45.791Z,4781
2017-07-06T09:47:45.791Z,4719
2017-07-06T09:48:45.795Z,4691
2017-07-06T09:49:45.797Z,4713
2017-07-06T09:50:45.804Z,4685
2017-07-06T09:51:45.794Z,4691
2017-07-06T09:52:45.736Z,4730
2017-07-06T09:53:45.818Z,4809
2017-07-06T09:54:45.737Z,4741
2017-07-06T09:55:45.778Z,3723
2017-07-06T09:56:45.738Z,4511
2017-07-06T09:57:45.817Z,5056
2017-07-06T09:58:45.822Z,4989
2017-07-06T09:59:45.746Z,5000
2017-07-06T10:00:45.819Z,5062
2017-07-06T10:01:45.817Z,5146
2017-07-06T10:02:45.823Z,4966
2017-07-06T10:03:45.821Z,5107
2017-07-06T10:04:45.825Z,5152
2017-07-06T10:05:45.827Z,4910
2017-07-06T10:06:45.785Z,5068
2017-07-06T10:07:45.823Z,4989
2017-07-06T10:08:45.822Z,4995
2017-07-06T10:09:45.739Z,4905
2017-07-06T10:10:45.815Z,4663
2017-07-06T10:11:45.819Z,4483
2017-07-06T10:12:45.740Z,4370
2017-07-06T10:13:45.819Z,4258
2017-07-06T10:14:45.827Z,4179
2017-07-06T10:15:45.738Z,4370
2017-07-06T10:16:45.835Z,4511
2017-07-06T10:17:45.821Z,4786
2017-07-06T10:18:45.800Z,5017
2017-07-06T10:19:45.801Z,5163
2017-07-06T10:20:45.801Z,5321
2017-07-06T10:21:45.806Z,5248
2017-07-06T10:22:45.756Z,5338
2017-07-06T10:23:45.837Z,5203
2017-07-06T10:24:45.833Z,5270
2017-07-06T10:25:45.818Z,5107
2017-07-06T10:26:45.796Z,5073
2017-07-06T10:27:45.751Z,5197
2017-07-06T10:28:45.771Z,4483
2017-07-06T10:29:45.841Z,5411
2017-07-06T10:30:45.762Z,5265
2017-07-06T10:31:45.835Z,5253
2017-07-06T10:32:45.749Z,5293
2017-07-06T10:33:45.738Z,5225
2017-07-06T10:34:45.828Z,5130
2017-07-06T10:35:45.785Z,5017
2017-07-06T10:36:45.795Z,5248
2017-07-06T10:37:45.789Z,5326
2017-07-06T10:38:45.791Z,5343
2017-07-06T10:39:45.788Z,5394
2017-07-06T10:40:45.844Z,5512
2017-07-06T10:41:45.723Z,5619
2017-07-06T10:42:45.821Z,5602
2017-07-06T10:43:45.760Z,5518
2017-07-06T10:44:45.846Z,5400
2017-07-06T10:45:45.787Z,5366
2017-07-06T10:46:45.867Z,5349
2017-07-06T10:47:45.851Z,5388
2017-07-06T10:48:45.850Z,5411
2017-07-06T10:49:45.814Z,5416
2017-07-06T10:50:45.756Z,5400
2017-07-06T10:51:45.844Z,5450
2017-07-06T10:52:45.843Z,5461
2017-07-06T10:53:45.918Z,5591
2017-07-06T10:54:45.770Z,5613
2017-07-06T10:55:45.850Z,5608
2017-07-06T10:56:45.862Z,5529
2017-07-06T10:57:45.857Z,5535
2017-07-06T10:58:45.833Z,5596
2017-07-06T10:59:45.832Z,5658
2017-07-06T11:00:45.858Z,5647
2017-07-06T11:01:45.862Z,5681
2017-07-06T11:02:45.780Z,5625
2017-07-06T11:03:45.838Z,5636
2017-07-06T11:04:45.838Z,5585
2017-07-06T11:05:45.838Z,5715
2017-07-06T11:06:45.839Z,5799
2017-07-06T11:07:45.846Z,5878
2017-07-06T11:08:45.842Z,5979
2017-07-06T11:09:45.840Z,6001
2017-07-06T11:10:45.844Z,6035
2017-07-06T11:11:45.848Z,6091
2017-07-06T11:12:45.845Z,6103
2017-07-06T11:13:45.837Z,6136
2017-07-06T11:14:45.834Z,6080
2017-07-06T11:15:45.833Z,5968
2017-07-06T11:16:45.840Z,5844
2017-07-06T11:17:45.838Z,5793
2017-07-06T11:18:45.836Z,5726
2017-07-06T11:19:45.840Z,5805
2017-07-06T11:20:45.838Z,5827
2017-07-06T11:21:45.839Z,5816
2017-07-06T11:22:45.841Z,5776
2017-07-06T11:23:45.826Z,5731
2017-07-06T11:24:45.781Z,5726
2017-07-06T11:25:45.880Z,5737
2017-07-06T11:26:45.778Z,5754
2017-07-06T11:27:45.829Z,5765
2017-07-06T11:28:45.881Z,5760
2017-07-06T11:29:45.872Z,5765
2017-07-06T11:30:45.826Z,5754
2017-07-06T11:31:45.901Z,5799
2017-07-06T11:32:45.882Z,5866
2017-07-06T11:33:45.840Z,6007
2017-07-06T11:34:45.852Z,6013
2017-07-06T11:35:45.845Z,5968
2017-07-06T11:36:45.841Z,5951
2017-07-06T11:37:45.848Z,5889
2017-07-06T11:38:45.846Z,5833
2017-07-06T11:39:45.848Z,5805
2017-07-06T11:40:45.850Z,5748
2017-07-06T11:41:45.847Z,5698
2017-07-06T11:42:45.846Z,5608
2017-07-06T11:43:45.848Z,5681
2017-07-06T11:44:45.851Z,5681
2017-07-06T11:45:45.847Z,5686
2017-07-06T11:46:45.852Z,5816
2017-07-06T11:47:45.849Z,5861
2017-07-06T11:48:45.852Z,5850
2017-07-06T11:49:45.854Z,5810
2017-07-06T11:50:45.856Z,5923
2017-07-06T11:51:45.852Z,6046
2017-07-06T11:52:45.857Z,6131
2017-07-06T11:53:45.867Z,6108
2017-07-06T11:54:45.866Z,5934
2017-07-06T11:55:45.791Z,5985
2017-07-06T11:56:45.869Z,5878
2017-07-06T11:57:45.869Z,6013
2017-07-06T11:58:45.868Z,5973
2017-07-06T11:59:45.870Z,5855
2017-07-06T12:00:45.868Z,5900
2017-07-06T12:01:45.872Z,5855
2017-07-06T12:02:45.871Z,5821
2017-07-06T12:03:45.872Z,5827
2017-07-06T12:04:45.873Z,5861
2017-07-06T12:05:45.807Z,5990
2017-07-06T12:06:45.875Z,5945
2017-07-06T12:07:45.876Z,5973
2017-07-06T12:08:45.875Z,5895
2017-07-06T12:09:45.876Z,5878
2017-07-06T12:10:45.888Z,5838
2017-07-06T12:11:45.877Z,5585
2017-07-06T12:12:45.878Z,4561
2017-07-06T12:13:45.883Z,5771
2017-07-06T12:14:45.882Z,5793
2017-07-06T12:15:45.878Z,5535
2017-07-06T12:16:45.880Z,6075
2017-07-06T12:17:45.877Z,5850
2017-07-06T12:18:45.879Z,2880
2017-07-06T12:19:45.880Z,4629
2017-07-06T12:20:45.890Z,5034
2017-07-06T12:21:45.882Z,5658
2017-07-06T12:22:45.882Z,5450
2017-07-06T12:23:45.845Z,5546
2017-07-06T12:24:45.819Z,5580
2017-07-06T12:25:45.819Z,5754
2017-07-06T12:26:45.814Z,5737
2017-07-06T12:27:45.829Z,5821
2017-07-06T12:29:45.830Z,5855
2017-07-06T12:30:45.867Z,5911
2017-07-06T12:31:45.868Z,5968
2017-07-06T12:32:45.823Z,6058
2017-07-06T12:33:45.880Z,6198
2017-07-06T12:35:45.882Z,6108
2017-07-06T12:36:45.881Z,5366
2017-07-06T12:37:45.882Z,6103
2017-07-06T12:38:45.883Z,6103
2017-07-06T12:39:45.883Z,6041
2017-07-06T12:40:45.883Z,6120
2017-07-06T12:41:45.884Z,6198
2017-07-06T12:42:45.887Z,6322
2017-07-06T12:43:45.829Z,6367
2017-07-06T12:44:45.921Z,6322
2017-07-06T12:45:45.834Z,6333
2017-07-06T12:46:45.912Z,6024
2017-07-06T12:47:45.886Z,5535
2017-07-06T12:48:45.921Z,6339
2017-07-06T12:49:45.837Z,6294
2017-07-06T12:50:45.918Z,6193
2017-07-06T12:51:45.923Z,6030
2017-07-06T12:52:45.923Z,5979
2017-07-06T12:53:45.925Z,5838
2017-07-06T12:54:45.922Z,5737
2017-07-06T12:55:45.836Z,5726
2017-07-06T12:56:45.929Z,5686
2017-07-06T12:57:45.860Z,5782
2017-07-06T12:58:45.888Z,5810
2017-07-06T12:59:45.906Z,5833
2017-07-06T13:00:45.926Z,5833
2017-07-06T13:01:45.935Z,5883
2017-07-06T13:02:45.841Z,5990
2017-07-06T13:03:45.924Z,6103
2017-07-06T13:04:45.845Z,6221
2017-07-06T13:05:45.854Z,6277
2017-07-06T13:06:45.926Z,3645
2017-07-06T13:07:45.926Z,5287
2017-07-06T13:08:45.927Z,4213
2017-07-06T13:09:45.935Z,3301
2017-07-06T13:10:45.925Z,3363
2017-07-06T13:11:45.930Z,4269
2017-07-06T13:12:45.845Z,2992
2017-07-06T13:13:45.933Z,3341
2017-07-06T13:14:45.852Z,3768
2017-07-06T13:15:45.931Z,6305
2017-07-06T13:16:45.932Z,5951
2017-07-06T13:17:45.932Z,5512
2017-07-06T13:18:45.853Z,5180
2017-07-06T13:19:45.929Z,4708
2017-07-06T13:20:45.916Z,4741
2017-07-06T13:21:45.935Z,4173
2017-07-06T13:22:45.933Z,4590
2017-07-06T13:23:45.908Z,3600
2017-07-06T13:24:45.936Z,3650
2017-07-06T13:25:45.847Z,3043
2017-07-06T13:26:45.941Z,3020
2017-07-06T13:27:45.895Z,3504
2017-07-06T13:28:45.933Z,6165
2017-07-06T13:29:45.942Z,5276
2017-07-06T13:30:45.938Z,6046
2017-07-06T13:31:45.862Z,5940
2017-07-06T13:32:45.923Z,5889
2017-07-06T13:33:45.907Z,5776
2017-07-06T13:34:45.911Z,5596
2017-07-06T13:35:45.912Z,5090
2017-07-06T13:36:45.913Z,5636
2017-07-06T13:37:45.913Z,5574
2017-07-06T13:38:45.914Z,5400
2017-07-06T13:39:46.012Z,5349
2017-07-06T13:40:45.916Z,5428
2017-07-06T13:41:45.921Z,5535
2017-07-06T13:42:45.913Z,5501
2017-07-06T13:43:45.949Z,5326
2017-07-06T13:44:45.868Z,5484
2017-07-06T13:45:45.872Z,5146